Time;durP1;ratioP1;P1;durP2;ratioP2;P2;SDS_P1;SDS_P2;PMS_P1;PMS_P2;Temp;Humidity;BMP_temperature;BMP_pressure;BME280_temperature;BME280_humidity;BME280_pressure;Samples;Min_cycle;Max_cycle;Signal;HPM_P1;HPM_P2
2023/07/05 00:00:20;;;;;;;62.43;7.87;;;;;;;24.64;61.79;99218.47;7316461;19;130248;-40
2023/07/05 00:02:45;;;;;;;41.87;6.40;;;;;;;24.63;61.50;99219.44;7317653;19;129389;-42
2023/07/05 00:05:11;;;;;;;45.73;7.37;;;;;;;24.63;61.17;99215.00;7316617;19;128910;-40
2023/07/05 00:07:37;;;;;;;58.83;7.10;;;;;;;24.65;61.41;99214.84;7314587;19;128882;-40
2023/07/05 00:10:03;;;;;;;66.93;7.47;;;;;;;24.64;61.69;99213.22;7315002;19;129086;-40
2023/07/05 00:12:28;;;;;;;38.50;6.53;;;;;;;24.53;61.38;99187.28;7316262;19;129620;-40
2023/07/05 00:14:54;;;;;;;38.90;6.90;;;;;;;24.65;61.70;99204.31;7317282;19;129035;-40
2023/07/05 00:17:19;;;;;;;57.47;7.17;;;;;;;24.64;61.14;99203.53;7315937;19;129377;-40
2023/07/05 00:19:50;;;;;;;77.37;8.20;;;;;;;24.56;61.91;99181.69;7312414;19;130468;-40
2023/07/05 00:22:15;;;;;;;48.25;5.93;;;;;;;24.64;61.50;99203.53;7318007;19;129241;-40
2023/07/05 00:24:40;;;;;;;35.47;6.60;;;;;;;24.65;61.51;99193.81;7316883;19;129129;-42
2023/07/05 00:27:06;;;;;;;108.50;9.67;;;;;;;24.66;61.87;99195.47;7314720;19;129412;-43
2023/07/05 00:29:31;;;;;;;67.70;7.73;;;;;;;24.66;61.42;99196.25;7315256;19;129486;-42
2023/07/05 00:31:56;;;;;;;38.00;6.47;;;;;;;24.56;61.41;99174.59;7314973;19;129671;-42
2023/07/05 00:34:22;;;;;;;68.90;8.27;;;;;;;24.67;61.43;99182.16;7316615;19;129003;-40
2023/07/05 00:36:47;;;;;;;65.73;7.57;;;;;;;24.67;61.81;99186.56;7316940;19;129019;-42
2023/07/05 00:39:12;;;;;;;40.30;5.93;;;;;;;24.58;61.71;99166.59;7314692;19;129052;-42
2023/07/05 00:41:38;;;;;;;23.23;5.87;;;;;;;24.68;61.37;99182.97;7316949;19;129404;-41
2023/07/05 00:44:03;;;;;;;46.10;7.00;;;;;;;24.67;61.76;99176.06;7316756;19;128875;-42
2023/07/05 00:46:33;;;;;;;70.13;7.30;;;;;;;24.68;61.96;99177.72;7314692;19;129192;-42
2023/07/05 00:49:04;;;;;;;59.00;7.22;;;;;;;24.66;61.70;99174.44;7314906;19;129121;-42
2023/07/05 00:51:51;;;;;;;50.95;6.90;;;;;;;24.67;61.86;99176.88;7314276;19;132055;-43
2023/07/05 00:54:22;;;;;;;40.08;6.30;;;;;;;24.69;61.67;99168.88;7315198;19;128885;-41
2023/07/05 00:56:56;;;;;;;53.35;7.03;;;;;;;24.68;61.44;99168.03;7315581;19;129226;-42
2023/07/05 00:59:25;;;;;;;64.50;7.53;;;;;;;24.68;62.11;99167.22;7313774;19;130032;-42
2023/07/05 01:01:51;;;;;;;45.75;7.00;;;;;;;24.67;61.64;99160.28;7315042;19;129308;-40
2023/07/05 01:04:18;;;;;;;53.60;6.90;;;;;;;24.68;61.80;99167.22;7315273;19;130253;-39
2023/07/05 01:06:44;;;;;;;21.92;5.97;;;;;;;24.67;61.16;99158.50;7313865;19;128815;-42
2023/07/05 01:09:10;;;;;;;39.38;6.38;;;;;;;24.64;61.06;99155.38;7313291;19;129034;-40
2023/07/05 01:11:54;;;;;;;95.70;8.93;;;;;;;24.67;61.63;99149.78;7315231;19;130289;-40
2023/07/05 01:14:38;;;;;;;71.60;7.50;;;;;;;24.69;62.02;99150.47;7315516;19;129555;-40
2023/07/05 01:17:25;;;;;;;94.28;9.27;;;;;;;24.68;62.12;99146.19;7314458;19;129284;-41
2023/07/05 01:20:11;;;;;;;55.10;7.00;;;;;;;24.69;61.88;99142.56;7313849;19;129035;-40
2023/07/05 01:22:51;;;;;;;62.42;7.43;;;;;;;24.69;61.43;99139.94;7315143;19;129330;-39
2023/07/05 01:25:55;;;;;;;45.25;6.72;;;;;;;24.69;61.46;99142.56;7315024;19;130737;-41
2023/07/05 01:28:51;;;;;;;57.03;7.15;;;;;;;24.63;62.29;99127.44;7313965;19;129156;-40
2023/07/05 01:31:54;;;;;;;68.28;7.60;;;;;;;24.56;61.57;99110.72;7313024;19;129149;-41
2023/07/05 01:34:44;;;;;;;19.25;5.57;;;;;;;24.67;62.25;99123.50;7310477;19;129375;-40
2023/07/05 01:37:27;;;;;;;90.13;8.40;;;;;;;24.66;61.71;99130.53;7313691;19;129241;-40
2023/07/05 01:39:53;;;;;;;46.17;6.05;;;;;;;24.65;61.59;99114.94;7312160;19;129124;-40
2023/07/05 01:42:23;;;;;;;68.60;7.20;;;;;;;24.64;61.98;99119.41;7314905;19;129240;-40
2023/07/05 01:44:48;;;;;;;47.45;6.53;;;;;;;24.63;62.19;99119.53;7315281;19;129636;-40
2023/07/05 01:47:21;;;;;;;53.80;6.77;;;;;;;24.65;61.79;99122.84;7311885;19;129240;-40
2023/07/05 01:50:03;;;;;;;46.80;6.07;;;;;;;24.55;61.52;99107.28;7311718;19;128882;-40
2023/07/05 01:52:36;;;;;;;58.22;6.85;;;;;;;24.64;61.52;99108.06;7314360;19;129114;-40
2023/07/05 01:55:08;;;;;;;69.97;7.57;;;;;;;24.64;61.89;99118.56;7313655;19;128964;-40
2023/07/05 01:58:00;;;;;;;51.70;6.88;;;;;;;24.67;61.98;99120.84;7313534;19;129208;-40
2023/07/05 02:00:28;;;;;;;44.78;6.68;;;;;;;24.64;61.91;99110.69;7314941;19;129391;-40
2023/07/05 02:03:07;;;;;;;49.78;7.07;;;;;;;24.66;61.97;99106.09;7314799;19;129655;-40
2023/07/05 02:05:33;;;;;;;29.83;5.25;;;;;;;24.63;61.37;99090.63;7314493;19;130411;-40
2023/07/05 02:07:59;;;;;;;51.50;6.40;;;;;;;24.61;61.75;99093.44;7310751;19;129141;-40
2023/07/05 02:10:25;;;;;;;55.60;6.90;;;;;;;24.63;61.61;99085.38;7312291;19;129357;-40
2023/07/05 02:12:52;;;;;;;26.92;5.57;;;;;;;24.57;61.66;99075.56;7313914;19;128997;-40
2023/07/05 02:15:19;;;;;;;36.15;6.38;;;;;;;24.64;61.33;99087.03;7314068;19;131594;-40
2023/07/05 02:17:44;;;;;;;48.55;6.57;;;;;;;24.64;61.23;99076.50;7313500;19;129367;-40
2023/07/05 02:20:10;;;;;;;61.53;6.57;;;;;;;24.65;61.41;99075.50;7310186;19;129499;-40
2023/07/05 02:22:36;;;;;;;53.33;6.93;;;;;;;24.64;61.87;99076.50;7313528;19;129861;-39
2023/07/05 02:25:01;;;;;;;45.00;5.90;;;;;;;24.64;61.35;99076.50;7312658;19;129650;-39
2023/07/05 02:27:27;;;;;;;29.37;5.50;;;;;;;24.65;61.37;99072.88;7310395;19;129326;-40
2023/07/05 02:29:53;;;;;;;66.28;7.07;;;;;;;24.65;61.83;99070.25;7311023;19;129305;-40
2023/07/05 02:32:20;;;;;;;74.87;7.67;;;;;;;24.64;61.49;99060.75;7309303;19;128973;-40
2023/07/05 02:34:45;;;;;;;50.85;6.25;;;;;;;24.64;61.24;99060.75;7313038;19;129346;-40
2023/07/05 02:37:11;;;;;;;98.40;8.83;;;;;;;24.65;62.08;99062.38;7311220;19;129109;-41
2023/07/05 02:39:36;;;;;;;73.57;7.30;;;;;;;24.64;61.75;99055.50;7310521;19;129075;-40
2023/07/05 02:42:03;;;;;;;22.60;5.27;;;;;;;24.61;62.04;99051.38;7311357;19;129485;-40
2023/07/05 02:44:29;;;;;;;32.80;5.78;;;;;;;24.64;61.82;99055.50;7312367;19;132056;-41
2023/07/05 02:46:55;;;;;;;56.83;6.57;;;;;;;24.61;61.69;99050.59;7309800;19;128903;-39
2023/07/05 02:49:20;;;;;;;53.87;6.63;;;;;;;24.64;61.44;99058.13;7310720;19;128673;-40
2023/07/05 02:51:45;;;;;;;47.07;6.67;;;;;;;24.63;61.99;99044.16;7311774;19;129309;-40
2023/07/05 02:54:11;;;;;;;46.60;6.57;;;;;;;24.63;61.80;99044.16;7312023;19;129574;-41
2023/07/05 02:56:36;;;;;;;41.37;6.03;;;;;;;24.64;61.47;99039.72;7312108;19;129212;-40
2023/07/05 02:59:01;;;;;;;62.03;6.83;;;;;;;24.56;61.43;99026.63;7310000;19;128769;-40
2023/07/05 03:01:27;;;;;;;49.80;6.20;;;;;;;24.64;61.98;99034.47;7312278;19;131063;-40
2023/07/05 03:03:52;;;;;;;51.20;6.83;;;;;;;24.59;61.39;99021.84;7311924;19;129026;-39
2023/07/05 03:06:18;;;;;;;70.30;7.07;;;;;;;24.63;62.02;99027.53;7309253;19;129129;-40
2023/07/05 03:08:43;;;;;;;83.30;8.03;;;;;;;24.65;61.74;99025.56;7310194;19;128895;-40
2023/07/05 03:11:08;;;;;;;44.37;5.80;;;;;;;24.65;61.39;99025.56;7311040;19;129101;-40
2023/07/05 03:13:35;;;;;;;58.93;6.73;;;;;;;24.65;61.33;99028.19;7311903;19;130142;-40
2023/07/05 03:16:02;;;;;;;59.28;6.68;;;;;;;24.64;61.64;99023.94;7311080;19;129521;-40
2023/07/05 03:18:27;;;;;;;63.95;7.03;;;;;;;24.61;62.03;99013.78;7310674;19;129423;-39
2023/07/05 03:20:53;;;;;;;90.27;8.20;;;;;;;24.65;61.53;99023.78;7309204;19;129009;-39
2023/07/05 03:23:19;;;;;;;48.23;6.47;;;;;;;24.64;61.84;99009.00;7311281;19;129276;-41
2023/07/05 03:25:55;;;;;;;70.33;7.07;;;;;;;24.66;61.73;99014.09;7311173;19;129609;-41
2023/07/05 03:28:20;;;;;;;76.38;6.93;;;;;;;24.63;62.03;99011.78;7308390;19;129068;-40
2023/07/05 03:31:05;;;;;;;51.63;6.63;;;;;;;24.65;62.04;99015.06;7311601;19;129582;-39
2023/07/05 03:33:32;;;;;;;51.08;6.55;;;;;;;24.65;61.88;99009.78;7311783;19;129403;-39
2023/07/05 03:36:01;;;;;;;;;;;;;;;24.71;61.83;99001.28;7310466;19;129413;-40
2023/07/05 03:38:28;;;;;;;22.00;5.28;;;;;;;24.62;61.79;99008.34;7309556;19;128910;-39
2023/07/05 03:41:03;;;;;;;64.90;7.07;;;;;;;24.65;62.11;99005.38;7309986;19;129114;-40
2023/07/05 03:43:30;;;;;;;46.30;6.20;;;;;;;24.52;62.10;98978.00;7312624;19;129840;-40
2023/07/05 03:45:59;;;;;;;60.13;6.55;;;;;;;24.61;62.10;98992.75;7308454;19;128994;-40
2023/07/05 03:48:25;;;;;;;61.42;6.53;;;;;;;24.63;61.58;99001.25;7304130;19;129232;-40
2023/07/05 03:50:54;;;;;;;98.90;8.80;;;;;;;24.64;62.34;98995.03;7310102;19;129566;-39
2023/07/05 03:53:19;;;;;;;52.83;6.28;;;;;;;24.64;61.87;98987.16;7312787;19;129330;-39
2023/07/05 03:55:45;;;;;;;48.00;6.03;;;;;;;24.64;62.15;98977.47;7317189;19;129386;-40
2023/07/05 03:58:10;;;;;;;67.77;6.87;;;;;;;24.65;62.14;98980.88;7314756;19;129193;-39
2023/07/05 04:00:35;;;;;;;56.47;6.60;;;;;;;24.64;61.88;98984.50;7315751;19;128944;-39
2023/07/05 04:03:01;;;;;;;54.40;6.40;;;;;;;24.64;62.19;98982.72;7317002;19;129413;-38
2023/07/05 04:05:26;;;;;;;52.50;6.43;;;;;;;24.65;61.76;98978.25;7316170;19;129008;-41
2023/07/05 04:07:51;;;;;;;51.07;5.73;;;;;;;24.65;61.76;98962.47;7313638;19;128873;-39
2023/07/05 04:10:17;;;;;;;75.47;7.23;;;;;;;24.63;62.12;98970.53;7313676;19;129565;-39
2023/07/05 04:12:42;;;;;;;48.53;6.17;;;;;;;24.52;61.69;98951.72;7315841;19;129152;-39
2023/07/05 04:15:08;;;;;;;44.00;5.83;;;;;;;24.60;61.35;98967.44;7316340;19;128826;-39
2023/07/05 04:17:33;;;;;;;55.70;6.37;;;;;;;24.63;62.19;98964.47;7315892;19;129820;-38
2023/07/05 04:19:59;;;;;;;55.40;6.57;;;;;;;24.63;61.82;98959.22;7314584;19;129021;-40
2023/07/05 04:22:24;;;;;;;44.10;6.10;;;;;;;24.64;61.76;98963.50;7317126;19;129155;-40
2023/07/05 04:24:49;;;;;;;54.33;6.70;;;;;;;24.63;62.30;98954.78;7315934;19;129737;-39
2023/07/05 04:27:16;;;;;;;76.57;7.00;;;;;;;24.54;61.93;98934.81;7314191;19;128969;-41
2023/07/05 04:29:41;;;;;;;39.90;5.35;;;;;;;24.52;62.04;98925.44;7313884;19;129080;-42
2023/07/05 04:32:07;;;;;;;63.70;6.67;;;;;;;24.61;61.58;98940.97;7316675;19;129706;-40
2023/07/05 04:34:33;;;;;;;20.03;5.13;;;;;;;24.62;61.50;98947.91;7316336;19;129631;-38
2023/07/05 04:36:59;;;;;;;62.07;6.43;;;;;;;24.62;61.70;98944.44;7315802;19;128813;-38
2023/07/05 04:39:24;;;;;;;40.03;5.70;;;;;;;24.62;62.10;98936.56;7314838;19;129495;-39
2023/07/05 04:41:49;;;;;;;45.80;5.87;;;;;;;24.60;61.87;98930.66;7315820;19;129630;-38
2023/07/05 04:44:15;;;;;;;50.80;5.97;;;;;;;24.62;61.75;98931.28;7316482;19;128848;-39
2023/07/05 04:46:40;;;;;;;67.90;6.90;;;;;;;24.63;62.25;98935.53;7314923;19;128894;-38
2023/07/05 04:49:06;;;;;;;54.77;6.17;;;;;;;24.62;61.93;98931.28;7313926;19;129717;-39
2023/07/05 04:51:32;;;;;;;53.63;6.50;;;;;;;24.60;61.86;98931.47;7315132;19;129090;-37
2023/07/05 04:53:57;;;;;;;39.43;5.97;;;;;;;24.62;62.10;98936.56;7315947;19;129178;-38
2023/07/05 04:56:22;;;;;;;67.43;6.40;;;;;;;24.53;61.74;98921.84;7315541;19;128818;-39
2023/07/05 04:58:50;;;;;;;58.20;6.47;;;;;;;24.54;61.56;98929.56;7314568;19;129501;-39
2023/07/05 05:01:18;;;;;;;73.00;7.00;;;;;;;24.61;61.70;98938.34;7314293;19;130395;-42
2023/07/05 05:03:43;;;;;;;43.92;6.00;;;;;;;24.62;61.67;98942.63;7314990;19;129337;-42
2023/07/05 05:06:09;;;;;;;73.27;7.10;;;;;;;24.59;61.62;98932.47;7314502;19;128950;-41
2023/07/05 05:08:35;;;;;;;44.72;5.55;;;;;;;24.63;61.53;98933.75;7311415;19;129062;-42
2023/07/05 05:11:02;;;;;;;98.37;8.50;;;;;;;24.56;61.49;98913.59;7313728;19;129262;-41
2023/07/05 05:13:30;;;;;;;59.22;6.53;;;;;;;24.63;62.17;98928.50;7315406;19;129140;-41
2023/07/05 05:15:56;;;;;;;200.02;13.15;;;;;;;24.65;61.30;98926.50;7307202;19;129419;-41
2023/07/05 05:18:22;;;;;;;61.60;6.80;;;;;;;24.66;61.58;98928.13;7306960;19;129904;-41
2023/07/05 05:20:48;;;;;;;50.85;6.50;;;;;;;24.66;61.60;98922.88;7312397;19;129166;-42
2023/07/05 05:23:14;;;;;;;53.43;6.73;;;;;;;24.65;61.66;98918.63;7314190;19;129010;-38
2023/07/05 05:25:44;;;;;;;128.70;10.70;;;;;;;24.54;61.33;98895.38;7308910;19;129106;-40
2023/07/05 05:28:11;;;;;;;55.17;7.20;;;;;;;24.66;61.89;98919.44;7310239;19;129052;-40
2023/07/05 05:30:36;;;;;;;;;;;;;;;24.73;61.79;98923.03;7314339;19;129603;-41
2023/07/05 05:33:05;;;;;;;42.53;6.22;;;;;;;24.66;62.02;98917.63;7314871;19;129477;-40
2023/07/05 05:35:31;;;;;;;87.53;8.52;;;;;;;24.64;61.96;98913.53;7313414;19;128837;-40
2023/07/05 05:37:57;;;;;;;45.13;6.32;;;;;;;24.53;61.63;98895.56;7314418;19;129064;-39
2023/07/05 05:40:22;;;;;;;38.20;5.80;;;;;;;24.64;61.42;98913.53;7313898;19;129254;-40
2023/07/05 05:42:48;;;;;;;47.23;6.83;;;;;;;24.53;61.85;98895.56;7315123;19;129417;-40
2023/07/05 05:45:13;;;;;;;71.43;7.63;;;;;;;24.61;61.70;98914.69;7313726;19;128992;-39
2023/07/05 05:47:39;;;;;;;27.47;5.33;;;;;;;24.59;61.63;98908.81;7312780;19;129160;-41
2023/07/05 05:50:05;;;;;;;52.73;6.67;;;;;;;24.62;61.50;98910.28;7312151;19;129090;-41
2023/07/05 05:52:31;;;;;;;44.57;6.57;;;;;;;24.62;61.87;98910.28;7314524;19;129402;-40
2023/07/05 05:54:56;;;;;;;67.90;7.60;;;;;;;24.60;61.82;98907.00;7314235;19;129086;-39
2023/07/05 05:57:22;;;;;;;82.73;7.53;;;;;;;24.63;62.18;98907.47;7310232;19;129889;-40
2023/07/05 05:59:47;;;;;;;59.33;6.63;;;;;;;24.62;61.73;98902.38;7305890;19;129340;-41
2023/07/05 06:02:13;;;;;;;74.30;7.63;;;;;;;24.62;61.87;98899.75;7310383;19;129096;-41
2023/07/05 06:04:38;;;;;;;59.00;6.50;;;;;;;24.63;61.58;98904.00;7313661;19;129123;-39
2023/07/05 06:07:03;;;;;;;64.33;7.47;;;;;;;24.63;61.70;98898.75;7311363;19;129997;-40
2023/07/05 06:09:29;;;;;;;40.27;6.03;;;;;;;24.63;61.93;98901.38;7311781;19;129651;-40
2023/07/05 06:11:54;;;;;;;59.63;6.90;;;;;;;24.62;61.74;98891.88;7314112;19;129254;-39
2023/07/05 06:14:19;;;;;;;52.13;5.93;;;;;;;24.61;61.80;98890.25;7314677;19;129131;-40
2023/07/05 06:16:45;;;;;;;50.87;6.50;;;;;;;24.60;61.78;98888.59;7310655;19;129956;-40
2023/07/05 06:19:10;;;;;;;49.33;6.17;;;;;;;24.60;61.77;98888.59;7311149;19;129938;-39
2023/07/05 06:21:35;;;;;;;62.17;6.63;;;;;;;24.60;62.37;98885.97;7312685;19;128723;-40
2023/07/05 06:24:01;;;;;;;48.13;6.53;;;;;;;24.61;61.71;98900.75;7314084;19;128889;-40
2023/07/05 06:26:26;;;;;;;48.70;6.00;;;;;;;24.60;61.59;98907.81;7312900;19;129879;-40
2023/07/05 06:28:52;;;;;;;42.53;6.03;;;;;;;24.60;61.45;98896.47;7309747;19;129100;-40
2023/07/05 06:31:18;;;;;;;59.73;6.83;;;;;;;24.60;62.10;98922.75;7312711;19;129405;-41
2023/07/05 06:33:43;;;;;;;47.63;5.85;;;;;;;24.58;62.16;98922.16;7314092;19;129679;-40
2023/07/05 06:36:10;;;;;;;46.00;6.10;;;;;;;24.48;61.47;98904.78;7312582;19;129520;-39
2023/07/05 06:38:35;;;;;;;58.10;7.10;;;;;;;24.59;61.55;98910.63;7311980;19;129470;-39
2023/07/05 06:41:02;;;;;;;63.13;6.60;;;;;;;24.59;62.10;98921.97;7313183;19;129130;-39
2023/07/05 06:43:28;;;;;;;32.10;5.47;;;;;;;24.60;62.18;98931.47;7314066;19;128926;-40
2023/07/05 06:45:55;;;;;;;52.00;6.17;;;;;;;24.59;62.12;98932.47;7313364;19;129460;-41
2023/07/05 06:48:21;;;;;;;49.58;5.80;;;;;;;24.59;62.11;98929.03;7310865;19;129532;-42
2023/07/05 06:50:51;;;;;;;32.55;5.38;;;;;;;24.59;62.25;98936.91;7312629;19;129408;-41
2023/07/05 06:53:17;;;;;;;57.25;6.43;;;;;;;24.59;62.37;98936.91;7311957;19;129101;-41
2023/07/05 06:55:42;;;;;;;57.20;6.63;;;;;;;24.60;62.51;98928.84;7311998;19;129945;-42
2023/07/05 06:58:07;;;;;;;55.83;6.03;;;;;;;24.62;61.94;98926.03;7310951;19;129576;-40
2023/07/05 07:00:33;;;;;;;51.97;6.10;;;;;;;24.59;62.33;98918.50;7311391;19;129209;-40
2023/07/05 07:02:59;;;;;;;49.63;6.00;;;;;;;24.61;61.70;98930.47;7312848;19;129395;-42
2023/07/05 07:05:24;;;;;;;44.40;5.97;;;;;;;24.62;62.25;98933.91;7311842;19;129074;-41
2023/07/05 07:07:52;;;;;;;42.97;5.73;;;;;;;24.62;62.14;98931.28;7310670;19;129807;-40
2023/07/05 07:10:18;;;;;;;71.50;6.70;;;;;;;24.61;61.69;98933.09;7307996;19;129490;-40
2023/07/05 07:12:43;;;;;;;48.17;5.80;;;;;;;24.51;62.38;98913.31;7311735;19;129067;-40
2023/07/05 07:15:08;;;;;;;57.77;6.90;;;;;;;24.62;61.91;98928.66;7310630;19;129317;-40
2023/07/05 07:17:34;;;;;;;58.77;6.30;;;;;;;24.61;61.59;98919.16;7311596;19;130035;-39
2023/07/05 07:19:59;;;;;;;55.50;6.03;;;;;;;24.60;62.01;98923.59;7309619;19;128805;-40
2023/07/05 07:22:24;;;;;;;36.47;4.93;;;;;;;24.59;61.87;98927.22;7311508;19;128941;-40
2023/07/05 07:24:51;;;;;;;57.43;6.00;;;;;;;24.60;62.34;98918.34;7310300;19;128940;-40
2023/07/05 07:27:16;;;;;;;67.40;6.40;;;;;;;24.60;61.94;98917.50;7310233;19;129310;-40
2023/07/05 07:29:42;;;;;;;47.23;6.03;;;;;;;24.57;62.28;98910.81;7315539;19;128844;-39
2023/07/05 07:32:08;;;;;;;48.07;5.50;;;;;;;24.59;61.74;98902.75;7318938;19;129030;-40
2023/07/05 07:34:34;;;;;;;;;;;;;;;24.67;62.02;98902.69;7319394;19;129492;-40
2023/07/05 07:37:00;;;;;;;72.10;7.10;;;;;;;24.60;61.70;98897.31;7317726;19;129182;-42
2023/07/05 07:39:25;;;;;;;56.78;6.38;;;;;;;24.60;61.95;98907.00;7317028;19;129079;-41
2023/07/05 07:41:51;;;;;;;47.17;5.50;;;;;;;24.59;61.89;98900.94;7318116;19;128874;-39
2023/07/05 07:44:21;;;;;;;22.10;4.17;;;;;;;24.59;62.55;98911.44;7318058;19;129195;-42
2023/07/05 07:46:46;;;;;;;70.80;6.30;;;;;;;24.59;61.64;98915.88;7318310;19;129650;-42
2023/07/05 07:49:12;;;;;;;49.27;5.07;;;;;;;24.59;62.10;98908.81;7316237;19;129994;-41
2023/07/05 07:51:40;;;;;;;46.22;5.70;;;;;;;24.60;61.93;98896.47;7318841;19;129077;-42
2023/07/05 07:54:11;;;;;;;52.42;6.18;;;;;;;24.60;61.84;98901.72;7317227;19;129492;-40
2023/07/05 07:56:36;;;;;;;54.05;6.05;;;;;;;24.60;61.72;98901.72;7317240;19;130351;-42
2023/07/05 07:59:06;;;;;;;47.37;5.77;;;;;;;24.61;62.36;98888.41;7315762;19;129016;-39
2023/07/05 08:01:33;;;;;;;44.60;5.35;;;;;;;24.61;61.92;98887.63;7318347;19;128848;-40
2023/07/05 08:04:04;;;;;;;44.30;5.32;;;;;;;24.53;62.49;98871.91;7317566;19;129275;-41
2023/07/05 08:06:36;;;;;;;59.88;6.47;;;;;;;24.59;62.41;98894.84;7317921;19;129545;-38
2023/07/05 08:09:06;;;;;;;40.13;5.00;;;;;;;24.60;61.79;98894.69;7314705;19;128915;-38
2023/07/05 08:11:32;;;;;;;46.97;6.03;;;;;;;24.60;61.59;98896.47;7317357;19;129047;-38
2023/07/05 08:13:58;;;;;;;45.15;5.07;;;;;;;24.59;61.79;98894.84;7316690;19;129550;-38
2023/07/05 08:16:23;;;;;;;56.23;5.63;;;;;;;24.59;62.19;98900.09;7317076;19;129157;-38
2023/07/05 08:18:48;;;;;;;64.67;6.10;;;;;;;24.56;62.16;98889.94;7315784;19;128969;-40
2023/07/05 08:21:14;;;;;;;52.37;5.67;;;;;;;24.59;62.41;98900.09;7317152;19;129198;-43
2023/07/05 08:23:41;;;;;;;44.93;5.30;;;;;;;24.59;61.90;98905.38;7316887;19;129083;-42
2023/07/05 08:26:06;;;;;;;;;;;;;;;24.68;62.58;98899.06;7317072;19;129277;-40
2023/07/05 08:28:31;;;;;;;61.33;6.05;;;;;;;24.49;61.97;98890.63;7314916;19;128843;-42
2023/07/05 08:31:02;;;;;;;59.07;6.03;;;;;;;24.62;62.66;98899.75;7317253;19;129064;-42
2023/07/05 08:33:29;;;;;;;36.28;4.75;;;;;;;24.49;62.12;98882.75;7315642;19;129180;-42
2023/07/05 08:36:04;;;;;;;44.88;5.45;;;;;;;24.63;62.42;98885.59;7315607;19;129190;-41
2023/07/05 08:38:30;;;;;;;63.85;5.88;;;;;;;24.60;62.37;98888.59;7315669;19;129055;-42
2023/07/05 08:41:05;;;;;;;56.50;5.67;;;;;;;24.61;62.33;98892.88;7313482;19;129227;-40
2023/07/05 08:43:45;;;;;;;38.90;4.80;;;;;;;24.62;62.56;98900.59;7317207;19;129248;-38
2023/07/05 08:46:13;;;;;;;48.17;5.47;;;;;;;24.49;61.81;98882.75;7315748;19;129190;-38
2023/07/05 08:48:40;;;;;;;40.90;4.97;;;;;;;24.58;61.86;98898.50;7314162;19;128935;-38
2023/07/05 08:51:07;;;;;;;57.17;5.70;;;;;;;24.61;61.84;98908.66;7315605;19;129266;-40
2023/07/05 08:53:47;;;;;;;48.78;5.22;;;;;;;24.60;62.52;98907.00;7316497;19;129068;-39
2023/07/05 08:56:18;;;;;;;44.63;4.90;;;;;;;24.60;62.32;98907.00;7316319;19;129317;-38
2023/07/05 08:58:56;;;;;;;26.60;4.20;;;;;;;24.59;62.32;98908.81;7315577;19;129036;-38
2023/07/05 09:01:29;;;;;;;;;;;;;;;24.55;62.35;98885.66;7316856;19;129103;-38
2023/07/05 09:03:56;;;;;;;36.95;4.70;;;;;;;24.60;61.75;98909.63;7316687;19;129387;-38
2023/07/05 09:06:27;;;;;;;57.60;5.93;;;;;;;24.59;62.04;98908.00;7315185;19;130461;-38
2023/07/05 09:09:04;;;;;;;53.08;5.53;;;;;;;24.55;62.65;98893.56;7312896;19;129226;-38
2023/07/05 09:11:49;;;;;;;48.90;5.32;;;;;;;24.56;62.82;98895.22;7316423;19;128762;-40
2023/07/05 09:14:52;;;;;;;45.30;5.00;;;;;;;24.56;62.44;98896.00;7315802;19;130103;-41
2023/07/05 09:17:24;;;;;;;67.88;5.85;;;;;;;24.57;61.99;98907.34;7314378;19;129798;-40
2023/07/05 09:20:01;;;;;;;34.33;4.72;;;;;;;24.56;62.23;98900.47;7314026;19;129095;-40
2023/07/05 09:22:33;;;;;;;45.40;5.00;;;;;;;24.56;62.46;98892.59;7315887;19;129228;-38
2023/07/05 09:24:59;;;;;;;57.88;5.68;;;;;;;24.52;62.43;98888.66;7314627;19;129230;-40
2023/07/05 09:27:37;;;;;;;57.83;5.60;;;;;;;24.58;62.79;98895.84;7314252;19;129886;-40
2023/07/05 09:30:19;;;;;;;69.15;5.60;;;;;;;24.58;62.55;98883.50;7313276;19;129523;-38
2023/07/05 09:32:51;;;;;;;69.22;5.75;;;;;;;24.55;62.55;98883.03;7315164;19;129326;-40
2023/07/05 09:35:19;;;;;;;34.65;4.75;;;;;;;24.53;62.36;98887.69;7314963;19;128986;-39
2023/07/05 09:38:17;;;;;;;29.00;4.30;;;;;;;24.54;62.30;98870.91;7314758;19;129514;-38
2023/07/05 09:40:47;;;;;;;44.60;5.25;;;;;;;24.56;62.37;98879.44;7314756;19;128952;-40
2023/07/05 09:43:19;;;;;;;37.25;4.78;;;;;;;24.55;62.79;98872.53;7314874;19;129167;-40
2023/07/05 09:45:45;;;;;;;41.55;4.63;;;;;;;24.55;62.58;98877.78;7314931;19;129256;-40
2023/07/05 09:48:12;;;;;;;67.20;5.63;;;;;;;24.55;62.59;98880.41;7312159;19;129747;-40
2023/07/05 09:50:45;;;;;;;45.78;4.88;;;;;;;24.56;62.78;98887.31;7314841;19;129415;-40
2023/07/05 09:53:23;;;;;;;32.10;4.65;;;;;;;24.53;62.49;98879.81;7315275;19;130665;-39
2023/07/05 09:56:09;;;;;;;49.90;5.00;;;;;;;24.59;62.58;98889.59;7314178;19;129548;-40
2023/07/05 09:58:36;;;;;;;41.53;4.65;;;;;;;24.56;61.84;98889.94;7312873;19;129130;-40
2023/07/05 10:01:04;;;;;;;84.63;6.75;;;;;;;24.55;61.82;98891.75;7313364;19;130273;-40
2023/07/05 10:03:36;;;;;;;56.60;5.05;;;;;;;24.56;62.21;98892.59;7314281;19;129580;-40
2023/07/05 10:06:07;;;;;;;49.22;5.28;;;;;;;24.58;62.54;98901.13;7314819;19;129188;-42
2023/07/05 10:08:43;;;;;;;41.05;4.80;;;;;;;24.56;62.46;98905.72;7311826;19;129788;-38
2023/07/05 10:11:36;;;;;;;25.52;4.05;;;;;;;24.59;62.26;98905.38;7314041;19;129654;-40
2023/07/05 10:14:07;;;;;;;43.53;4.57;;;;;;;24.58;62.51;98904.53;7315051;19;130084;-38
2023/07/05 10:16:52;;;;;;;45.03;4.97;;;;;;;24.59;62.68;98900.09;7313481;19;129153;-38
2023/07/05 10:19:30;;;;;;;39.08;4.65;;;;;;;24.56;62.69;98901.25;7311004;19;129140;-42
2023/07/05 10:21:58;;;;;;;61.78;5.60;;;;;;;24.56;62.49;98895.22;7313690;19;129050;-39
2023/07/05 10:24:26;;;;;;;64.43;5.50;;;;;;;24.55;62.64;98904.91;7313746;19;128853;-39
2023/07/05 10:27:08;;;;;;;46.15;4.95;;;;;;;24.55;62.26;98893.56;7313303;19;129118;-40
2023/07/05 10:29:35;;;;;;;93.10;6.93;;;;;;;24.51;62.02;98893.09;7310667;19;129259;-40
2023/07/05 10:32:01;;;;;;;73.13;5.95;;;;;;;24.54;62.27;98886.69;7308505;19;129239;-39
2023/07/05 10:34:27;;;;;;;65.60;5.50;;;;;;;24.52;62.58;98889.47;7312127;19;129380;-39
2023/07/05 10:36:53;;;;;;;31.95;4.15;;;;;;;24.55;62.39;98894.38;7313162;19;129084;-42
2023/07/05 10:39:25;;;;;;;48.20;4.97;;;;;;;24.56;62.50;98885.50;7309955;19;129588;-41
2023/07/05 10:41:52;;;;;;;20.48;3.70;;;;;;;24.55;61.97;98877.78;7309622;19;129178;-38
2023/07/05 10:44:18;;;;;;;44.63;4.38;;;;;;;24.56;62.22;98889.94;7312644;19;129179;-39
2023/07/05 10:46:45;;;;;;;63.80;5.57;;;;;;;24.55;62.37;98883.03;7312518;19;129389;-38
2023/07/05 10:49:16;;;;;;;59.95;5.53;;;;;;;24.55;62.15;98893.56;7309668;19;129425;-41
2023/07/05 10:51:47;;;;;;;54.38;5.28;;;;;;;24.54;62.79;98898.03;7313195;19;129686;-39
2023/07/05 10:54:21;;;;;;;44.78;4.75;;;;;;;24.56;62.46;98900.47;7312098;19;128882;-40
2023/07/05 10:56:47;;;;;;;52.72;5.13;;;;;;;24.55;61.98;98896.19;7311541;19;129145;-40
2023/07/05 10:59:54;;;;;;;62.60;5.82;;;;;;;24.56;62.34;98897.84;7308704;19;130492;-39
2023/07/05 11:02:31;;;;;;;48.53;4.65;;;;;;;24.54;62.46;98886.69;7310528;19;129058;-40
2023/07/05 11:04:58;;;;;;;75.30;5.90;;;;;;;24.55;62.21;98889.13;7312368;19;129402;-40
2023/07/05 11:07:25;;;;;;;45.22;4.65;;;;;;;24.55;62.30;98894.38;7311685;19;129158;-40
2023/07/05 11:09:51;;;;;;;59.40;5.40;;;;;;;24.55;61.90;98898.81;7309631;19;129994;-40
2023/07/05 11:12:20;;;;;;;48.77;4.57;;;;;;;24.54;62.33;98898.03;7312346;19;129495;-39
2023/07/05 11:14:47;;;;;;;67.65;5.30;;;;;;;24.51;62.47;98893.09;7311420;19;129839;-40
2023/07/05 11:17:21;;;;;;;86.07;6.75;;;;;;;24.44;62.91;98871.94;7312286;19;129439;-41
2023/07/05 11:19:46;;;;;;;54.03;5.18;;;;;;;24.55;62.10;98883.03;7310250;19;129166;-41
2023/07/05 11:22:38;;;;;;;31.30;4.20;;;;;;;24.59;62.67;98879.91;7310919;19;129201;-40
2023/07/05 11:25:04;;;;;;;52.47;5.00;;;;;;;24.56;62.24;98884.69;7308342;19;128986;-42
2023/07/05 11:27:29;;;;;;;52.17;4.83;;;;;;;24.57;62.37;98870.56;7308133;19;131702;-42